createdAt,value
2019-03-09T00:02:15.553Z,6.47
2019-03-09T00:04:45.630Z,7.27
2019-03-09T00:07:15.727Z,4.83
2019-03-09T00:09:45.982Z,5.30
2019-03-09T00:12:17.012Z,6.13
2019-03-09T00:14:48.197Z,6.23
2019-03-09T00:17:18.579Z,5.30
2019-03-09T00:19:49.076Z,5.60
2019-03-09T00:22:19.136Z,6.27
2019-03-09T00:25:03.662Z,5.60
2019-03-09T00:27:49.861Z,5.60
2019-03-09T00:30:30.297Z,5.20
2019-03-09T00:33:00.478Z,5.13
2019-03-09T00:35:30.551Z,5.53
2019-03-09T00:38:01.753Z,5.80
2019-03-09T00:40:31.855Z,7.90
2019-03-09T00:43:03.194Z,6.60
2019-03-09T00:45:33.366Z,5.73
2019-03-09T00:48:03.409Z,5.83
2019-03-09T00:50:33.815Z,5.83
2019-03-09T00:53:04.009Z,5.53
2019-03-09T00:55:34.105Z,6.90
2019-03-09T00:58:04.350Z,6.17
2019-03-09T01:00:35.590Z,6.10
2019-03-09T01:03:05.615Z,5.83
2019-03-09T01:05:35.717Z,5.43
2019-03-09T01:08:06.759Z,5.93
2019-03-09T01:10:38.023Z,4.97
2019-03-09T01:13:08.151Z,6.27
2019-03-09T01:15:38.338Z,6.00
2019-03-09T01:18:08.727Z,5.80
2019-03-09T01:20:38.827Z,4.40
2019-03-09T01:23:09.192Z,4.73
2019-03-09T01:25:40.444Z,5.57
2019-03-09T01:28:10.546Z,5.80
2019-03-09T01:30:40.621Z,7.03
2019-03-09T01:33:10.595Z,4.63
2019-03-09T01:35:42.663Z,5.73
2019-03-09T01:38:12.631Z,7.23
2019-03-09T01:40:42.625Z,5.80
2019-03-09T01:43:12.973Z,5.13
2019-03-09T01:45:42.980Z,5.97
2019-03-09T01:48:12.991Z,5.70
2019-03-09T01:50:43.160Z,6.33
2019-03-09T01:53:13.349Z,5.83
2019-03-09T01:55:43.438Z,6.17
2019-03-09T01:58:13.602Z,6.57
2019-03-09T02:00:43.805Z,5.33
2019-03-09T02:03:13.993Z,5.73
2019-03-09T02:05:44.181Z,5.60
2019-03-09T02:08:14.536Z,4.13
2019-03-09T02:10:44.930Z,4.97
2019-03-09T02:13:15.977Z,5.57
2019-03-09T02:15:46.180Z,4.27
2019-03-09T02:18:19.231Z,5.43
2019-03-09T02:20:49.306Z,6.57
2019-03-09T02:23:19.813Z,5.40
2019-03-09T02:25:49.873Z,4.90
2019-03-09T02:28:19.899Z,4.93
2019-03-09T02:30:49.873Z,5.20
2019-03-09T02:33:20.069Z,5.53
2019-03-09T02:35:50.024Z,5.13
2019-03-09T02:38:44.865Z,4.37
2019-03-09T02:41:14.982Z,5.13
2019-03-09T02:43:45.171Z,4.93
2019-03-09T02:46:15.392Z,4.90
2019-03-09T02:48:45.471Z,4.97
2019-03-09T02:51:15.514Z,4.77
2019-03-09T02:53:45.598Z,6.87
2019-03-09T02:56:15.851Z,4.93
2019-03-09T02:58:46.194Z,4.87
2019-03-09T03:01:35.180Z,5.37
2019-03-09T03:04:05.351Z,4.80
2019-03-09T03:06:35.364Z,5.07
2019-03-09T03:09:06.355Z,4.73
2019-03-09T03:11:38.039Z,6.57
2019-03-09T03:14:08.132Z,5.00
2019-03-09T03:16:38.268Z,5.73
2019-03-09T03:19:08.358Z,5.53
2019-03-09T03:21:40.002Z,4.53
2019-03-09T03:24:11.019Z,5.77
2019-03-09T03:26:41.204Z,5.03
2019-03-09T03:29:11.476Z,4.90
2019-03-09T03:31:41.526Z,5.10
2019-03-09T03:34:11.748Z,4.43
2019-03-09T03:36:42.423Z,6.33
2019-03-09T03:39:12.723Z,5.67
2019-03-09T03:41:42.747Z,4.93
2019-03-09T03:44:12.908Z,4.37
2019-03-09T03:46:43.248Z,4.80
2019-03-09T03:49:14.344Z,4.97
2019-03-09T03:51:44.461Z,5.03
2019-03-09T03:54:15.516Z,5.63
2019-03-09T03:56:47.422Z,4.53
2019-03-09T03:59:17.416Z,4.97
2019-03-09T04:01:47.604Z,4.17
2019-03-09T04:04:17.685Z,7.70
2019-03-09T04:06:48.447Z,5.03
2019-03-09T04:09:18.599Z,6.10
2019-03-09T04:11:48.694Z,5.40
2019-03-09T04:14:18.960Z,4.30
2019-03-09T04:16:49.082Z,4.70
2019-03-09T04:19:19.347Z,5.37
2019-03-09T04:21:49.474Z,3.87
2019-03-09T04:24:19.520Z,4.63
2019-03-09T04:26:49.633Z,5.20
2019-03-09T04:29:19.807Z,5.57
2019-03-09T04:31:49.775Z,5.87
2019-03-09T04:34:19.793Z,4.33
2019-03-09T04:36:55.126Z,5.07
2019-03-09T04:39:25.167Z,4.90
2019-03-09T04:41:55.330Z,5.77
2019-03-09T04:44:27.142Z,6.00
2019-03-09T04:46:57.494Z,5.00
2019-03-09T04:49:27.634Z,4.73
2019-03-09T04:51:57.618Z,5.23
2019-03-09T04:54:27.977Z,5.57
2019-03-09T04:56:58.060Z,5.03
2019-03-09T04:59:28.146Z,5.63
2019-03-09T05:01:58.226Z,6.07
2019-03-09T05:04:48.854Z,6.17
2019-03-09T05:07:33.633Z,5.57
2019-03-09T05:10:15.669Z,5.10
2019-03-09T05:12:46.153Z,5.73
2019-03-09T05:15:16.264Z,5.67
2019-03-09T05:17:46.531Z,6.10
2019-03-09T05:20:16.493Z,5.27
2019-03-09T05:22:46.737Z,5.77
2019-03-09T05:25:17.547Z,4.60
2019-03-09T05:27:47.786Z,5.33
2019-03-09T05:30:36.550Z,5.03
2019-03-09T05:33:08.806Z,4.30
2019-03-09T05:35:38.913Z,4.03
2019-03-09T05:38:09.570Z,4.83
2019-03-09T05:40:40.875Z,5.57
2019-03-09T05:43:10.958Z,4.50
2019-03-09T05:45:41.225Z,5.47
2019-03-09T05:48:11.539Z,5.63
2019-03-09T05:50:41.673Z,5.20
2019-03-09T05:53:13.937Z,4.33
2019-03-09T05:55:44.013Z,4.60
2019-03-09T05:58:14.112Z,5.43
2019-03-09T06:00:44.249Z,4.97
2019-03-09T06:03:14.507Z,3.83
2019-03-09T06:05:56.908Z,5.23
2019-03-09T06:08:26.888Z,4.87
2019-03-09T06:10:57.049Z,4.73
2019-03-09T06:13:27.380Z,5.57
2019-03-09T06:15:57.539Z,4.67
2019-03-09T06:18:27.597Z,5.10
2019-03-09T06:20:58.274Z,5.10
2019-03-09T06:23:28.365Z,5.00
2019-03-09T06:25:58.708Z,4.93
2019-03-09T06:28:28.771Z,5.03
2019-03-09T06:30:58.822Z,4.47
2019-03-09T06:33:33.013Z,5.13
2019-03-09T06:36:22.858Z,5.63
2019-03-09T06:38:58.932Z,4.77
2019-03-09T06:41:42.082Z,4.07
2019-03-09T06:44:12.112Z,5.33
2019-03-09T06:46:42.379Z,4.53
2019-03-09T06:49:12.550Z,4.30
2019-03-09T06:51:42.672Z,4.50
2019-03-09T06:54:12.752Z,5.10
2019-03-09T06:56:42.941Z,4.13
2019-03-09T06:59:12.997Z,4.80
2019-03-09T07:01:43.041Z,4.63
2019-03-09T07:04:13.211Z,4.33
2019-03-09T07:06:43.599Z,5.10
2019-03-09T07:09:15.141Z,4.80
2019-03-09T07:11:45.757Z,5.10
2019-03-09T07:14:53.201Z,4.50
2019-03-09T07:17:23.301Z,5.60
2019-03-09T07:19:53.285Z,4.70
2019-03-09T07:22:23.403Z,5.33
2019-03-09T07:24:53.401Z,5.10
2019-03-09T07:27:23.413Z,4.93
2019-03-09T07:29:54.528Z,6.53
2019-03-09T07:32:24.529Z,4.60
2019-03-09T07:34:54.538Z,4.60
2019-03-09T07:37:25.339Z,4.50
2019-03-09T07:39:55.434Z,5.27
2019-03-09T07:42:26.786Z,5.97
2019-03-09T07:44:56.898Z,5.30
2019-03-09T07:47:28.130Z,4.07
2019-03-09T07:50:10.307Z,4.90
2019-03-09T07:52:40.340Z,4.27
2019-03-09T07:55:12.021Z,4.23
2019-03-09T07:57:42.095Z,4.80
2019-03-09T08:00:14.210Z,6.07
2019-03-09T08:02:44.250Z,4.17
2019-03-09T08:05:14.539Z,4.27
2019-03-09T08:07:44.833Z,6.03
2019-03-09T08:10:16.571Z,4.50
2019-03-09T08:12:46.897Z,4.27
2019-03-09T08:15:17.598Z,6.27
2019-03-09T08:17:48.140Z,4.87
2019-03-09T08:20:18.886Z,4.23
2019-03-09T08:22:49.109Z,4.50
2019-03-09T08:25:19.305Z,3.83
2019-03-09T08:27:49.394Z,4.80
2019-03-09T08:30:20.998Z,4.70
2019-03-09T08:32:52.268Z,4.53
2019-03-09T08:35:22.213Z,7.07
2019-03-09T08:37:52.533Z,6.60
2019-03-09T08:40:22.610Z,5.83
2019-03-09T08:42:52.703Z,5.67
2019-03-09T08:45:23.295Z,10.33
2019-03-09T08:47:53.390Z,9.13
2019-03-09T08:50:23.568Z,9.00
2019-03-09T08:52:53.602Z,6.97
2019-03-09T08:55:23.665Z,6.57
2019-03-09T08:57:53.807Z,7.77
2019-03-09T09:00:30.442Z,10.50
2019-03-09T09:03:00.866Z,7.27
2019-03-09T09:05:30.902Z,6.67
2019-03-09T09:08:03.386Z,9.77
2019-03-09T09:10:32.689Z,7.20
2019-03-09T09:13:02.747Z,11.73
2019-03-09T09:15:32.871Z,8.43
2019-03-09T09:18:02.861Z,10.73
2019-03-09T09:20:34.376Z,5.93
2019-03-09T09:23:04.931Z,8.57
2019-03-09T09:25:35.079Z,8.27
2019-03-09T09:28:07.224Z,5.20
2019-03-09T09:30:37.975Z,8.90
2019-03-09T09:33:08.422Z,7.00
2019-03-09T09:35:38.583Z,4.23
2019-03-09T09:38:08.767Z,8.97
2019-03-09T09:40:38.900Z,3.87
2019-03-09T09:43:09.754Z,4.90
2019-03-09T09:45:40.210Z,4.93
2019-03-09T09:48:10.455Z,6.97
2019-03-09T09:50:40.623Z,6.60
2019-03-09T09:53:10.849Z,6.33
2019-03-09T09:55:41.059Z,6.00
2019-03-09T09:58:11.296Z,6.30
2019-03-09T10:00:41.671Z,4.73
2019-03-09T10:03:14.743Z,7.27
2019-03-09T10:05:44.898Z,5.77
2019-03-09T10:08:16.829Z,7.10
2019-03-09T10:10:46.822Z,10.17
2019-03-09T10:13:17.225Z,7.07
2019-03-09T10:15:47.293Z,6.90
2019-03-09T10:18:17.783Z,7.40
2019-03-09T10:20:47.922Z,9.53
2019-03-09T10:23:21.643Z,8.77
2019-03-09T10:25:51.734Z,9.07
2019-03-09T10:28:21.948Z,15.70
2019-03-09T10:30:52.187Z,10.70
2019-03-09T10:33:24.189Z,6.23
2019-03-09T10:35:54.361Z,11.30
2019-03-09T10:38:24.933Z,8.43
2019-03-09T10:40:55.339Z,8.97
2019-03-09T10:43:25.385Z,6.53
2019-03-09T10:45:55.657Z,12.00
2019-03-09T10:48:25.814Z,10.90
2019-03-09T10:50:56.008Z,7.53
2019-03-09T10:53:26.229Z,8.00
2019-03-09T10:55:56.503Z,7.87
2019-03-09T10:58:26.646Z,6.77
2019-03-09T11:00:56.937Z,8.23
2019-03-09T11:03:26.986Z,8.17
2019-03-09T11:05:57.486Z,8.83
2019-03-09T11:08:27.634Z,9.40
2019-03-09T11:10:57.631Z,8.97
2019-03-09T11:13:27.962Z,7.10
2019-03-09T11:15:58.238Z,10.27
2019-03-09T11:18:28.681Z,7.47
2019-03-09T11:20:58.942Z,10.03
2019-03-09T11:23:29.252Z,7.47
2019-03-09T11:25:59.879Z,7.70
2019-03-09T11:28:30.113Z,7.90
2019-03-09T11:31:00.331Z,7.67
2019-03-09T11:33:31.831Z,8.13
2019-03-09T11:36:02.223Z,7.63
2019-03-09T11:38:33.486Z,6.43
2019-03-09T11:41:04.169Z,10.73
2019-03-09T11:43:53.507Z,9.57
2019-03-09T11:46:24.975Z,9.17
2019-03-09T11:48:55.368Z,7.43
2019-03-09T11:51:25.720Z,7.07
2019-03-09T11:53:56.286Z,9.50
2019-03-09T11:56:26.545Z,9.23
2019-03-09T11:58:56.931Z,9.23
2019-03-09T12:01:27.423Z,11.90
2019-03-09T12:03:57.854Z,24.03
2019-03-09T12:06:27.983Z,22.03
2019-03-09T12:08:58.059Z,15.53
2019-03-09T12:11:28.124Z,16.13
2019-03-09T12:13:59.351Z,18.87
2019-03-09T12:16:29.745Z,13.97
2019-03-09T12:19:00.912Z,18.50
2019-03-09T12:21:31.273Z,18.10
2019-03-09T12:24:15.833Z,21.70
2019-03-09T12:26:36.822Z,22.10
2019-03-09T12:29:06.853Z,18.77
2019-03-09T12:31:37.791Z,16.80
2019-03-09T12:34:09.560Z,20.93
2019-03-09T12:36:40.950Z,18.00
2019-03-09T12:39:11.049Z,24.37
2019-03-09T12:41:41.167Z,25.03
2019-03-09T12:44:11.604Z,22.23
2019-03-09T12:46:43.035Z,18.00
2019-03-09T12:49:13.599Z,19.07
2019-03-09T12:51:43.674Z,26.43
2019-03-09T12:54:13.677Z,21.97
2019-03-09T12:56:43.820Z,21.17
2019-03-09T12:59:13.852Z,19.30
2019-03-09T13:01:44.132Z,16.67
2019-03-09T13:04:15.154Z,20.30
2019-03-09T13:06:45.283Z,19.13
2019-03-09T13:09:15.567Z,16.90
2019-03-09T13:11:45.792Z,23.17
2019-03-09T13:14:15.918Z,26.87
2019-03-09T13:16:45.980Z,16.50
2019-03-09T13:19:16.034Z,18.03
2019-03-09T13:21:47.118Z,23.20
2019-03-09T13:24:17.271Z,16.97
2019-03-09T13:26:47.314Z,16.60
2019-03-09T13:29:17.856Z,20.57
2019-03-09T13:31:47.966Z,17.03
2019-03-09T13:34:18.564Z,20.87
2019-03-09T13:36:51.441Z,21.13
2019-03-09T13:39:21.543Z,20.00
2019-03-09T13:41:51.690Z,15.40
2019-03-09T13:44:21.744Z,17.80
2019-03-09T13:46:51.824Z,24.97
2019-03-09T13:49:21.799Z,15.57
2019-03-09T13:51:51.780Z,24.33
2019-03-09T13:54:21.800Z,17.20
2019-03-09T13:56:51.865Z,15.17
2019-03-09T13:59:21.871Z,16.73
2019-03-09T14:01:51.913Z,19.97
2019-03-09T14:04:21.918Z,22.90
2019-03-09T14:06:52.429Z,15.13
2019-03-09T14:09:22.385Z,17.27
2019-03-09T14:11:54.847Z,23.03
2019-03-09T14:14:25.752Z,16.50
2019-03-09T14:16:56.074Z,17.67
2019-03-09T14:19:26.128Z,14.90
2019-03-09T14:21:56.162Z,15.43
2019-03-09T14:24:26.618Z,17.67
2019-03-09T14:26:57.660Z,15.17
2019-03-09T14:29:27.942Z,11.30
2019-03-09T14:31:57.934Z,18.30
2019-03-09T14:34:28.679Z,12.93
2019-03-09T14:37:00.293Z,18.97
2019-03-09T14:39:30.362Z,12.87
2019-03-09T14:42:03.953Z,21.10
2019-03-09T14:44:34.103Z,16.37
2019-03-09T14:47:04.257Z,17.13
2019-03-09T14:49:34.637Z,14.60
2019-03-09T14:52:05.150Z,14.87
2019-03-09T14:54:35.256Z,14.83
2019-03-09T14:57:05.372Z,13.77
2019-03-09T14:59:35.660Z,13.63
2019-03-09T15:02:05.709Z,12.17
2019-03-09T15:04:36.027Z,17.33
2019-03-09T15:07:09.475Z,16.00
2019-03-09T15:09:39.943Z,13.13
2019-03-09T15:12:10.063Z,14.37
2019-03-09T15:14:40.521Z,11.13
2019-03-09T15:17:11.310Z,10.60
2019-03-09T15:19:42.133Z,13.83
2019-03-09T15:22:12.603Z,13.87
2019-03-09T15:24:43.120Z,16.77
2019-03-09T15:27:13.594Z,14.20
2019-03-09T15:29:43.786Z,11.33
2019-03-09T15:32:13.881Z,12.90
2019-03-09T15:34:43.835Z,13.07
2019-03-09T15:37:13.962Z,21.27
2019-03-09T15:39:44.215Z,13.90
2019-03-09T15:42:14.350Z,12.03
2019-03-09T15:44:44.374Z,16.43
2019-03-09T15:47:14.326Z,15.93
2019-03-09T15:49:44.241Z,12.57
2019-03-09T15:52:14.212Z,14.60
2019-03-09T15:54:45.418Z,16.87
2019-03-09T15:57:15.361Z,14.47
2019-03-09T15:59:45.562Z,14.07
2019-03-09T16:02:17.340Z,17.37
2019-03-09T16:04:47.736Z,14.03
2019-03-09T16:07:18.650Z,15.60
2019-03-09T16:09:48.773Z,19.43
2019-03-09T16:12:19.170Z,11.30
2019-03-09T16:14:49.159Z,25.97
2019-03-09T16:17:19.113Z,7.80
2019-03-09T16:19:49.136Z,18.97
2019-03-09T16:22:19.115Z,9.40
2019-03-09T16:24:49.134Z,14.90
2019-03-09T16:27:19.398Z,14.40
2019-03-09T16:29:49.691Z,13.23
2019-03-09T16:32:19.737Z,14.53
2019-03-09T16:34:50.155Z,13.30
2019-03-09T16:37:20.231Z,10.23
2019-03-09T16:39:50.225Z,9.47
2019-03-09T16:42:20.364Z,13.03
2019-03-09T16:44:50.354Z,11.00
2019-03-09T16:47:20.571Z,13.10
2019-03-09T16:49:50.722Z,13.70
2019-03-09T16:52:20.859Z,12.47
2019-03-09T16:54:50.890Z,11.50
2019-03-09T16:57:21.040Z,10.07
2019-03-09T16:59:51.365Z,18.77
2019-03-09T17:02:27.766Z,13.30
2019-03-09T17:04:53.286Z,12.90
2019-03-09T17:07:23.524Z,12.53
2019-03-09T17:09:53.641Z,11.93
2019-03-09T17:12:23.610Z,17.47
2019-03-09T17:14:54.082Z,9.67
2019-03-09T17:17:24.202Z,17.10
2019-03-09T17:19:54.267Z,19.53
2019-03-09T17:22:32.582Z,12.67
2019-03-09T17:24:56.438Z,19.63
2019-03-09T17:27:29.979Z,9.03
2019-03-09T17:30:00.272Z,14.97
2019-03-09T17:32:31.007Z,17.10
2019-03-09T17:35:01.173Z,13.10
2019-03-09T17:37:31.411Z,13.33
2019-03-09T17:40:01.640Z,17.70
2019-03-09T17:42:35.701Z,14.40
2019-03-09T17:45:08.951Z,10.83
2019-03-09T17:47:41.094Z,14.40
2019-03-09T17:50:12.178Z,12.57
2019-03-09T17:52:43.240Z,23.87
2019-03-09T17:55:14.406Z,21.83
2019-03-09T17:57:44.975Z,14.57
2019-03-09T18:00:17.857Z,13.50
2019-03-09T18:02:47.917Z,19.40
2019-03-09T18:05:19.728Z,11.60
2019-03-09T18:07:49.864Z,11.37
2019-03-09T18:10:32.715Z,16.57
2019-03-09T18:13:03.643Z,10.90
2019-03-09T18:15:34.253Z,17.70
2019-03-09T18:18:04.439Z,13.83
2019-03-09T18:20:34.598Z,19.57
2019-03-09T18:23:05.177Z,17.53
2019-03-09T18:25:35.559Z,17.00
2019-03-09T18:28:06.695Z,15.03
2019-03-09T18:30:36.811Z,20.70
2019-03-09T18:33:06.947Z,23.03
2019-03-09T18:35:37.129Z,14.30
2019-03-09T18:38:07.445Z,13.07
2019-03-09T18:40:37.412Z,10.63
2019-03-09T18:43:07.545Z,13.00
2019-03-09T18:45:37.535Z,16.30
2019-03-09T18:48:07.653Z,18.63
2019-03-09T18:50:37.839Z,15.40
2019-03-09T18:53:08.322Z,15.43
2019-03-09T18:55:38.572Z,19.93
2019-03-09T18:58:08.822Z,18.53
2019-03-09T19:00:38.834Z,16.87
2019-03-09T19:03:09.244Z,15.07
2019-03-09T19:05:39.367Z,18.67
2019-03-09T19:08:09.470Z,11.50
2019-03-09T19:10:39.472Z,14.77
2019-03-09T19:13:09.700Z,19.73
2019-03-09T19:15:39.662Z,13.83
2019-03-09T19:18:09.763Z,14.50
2019-03-09T19:20:39.877Z,13.03
2019-03-09T19:23:09.869Z,10.47
2019-03-09T19:25:39.729Z,10.90
2019-03-09T19:28:09.777Z,12.50
2019-03-09T19:30:39.892Z,14.00
2019-03-09T19:33:10.020Z,15.20
2019-03-09T19:35:39.954Z,12.43
2019-03-09T19:38:09.980Z,12.53
2019-03-09T19:40:40.062Z,12.03
2019-03-09T19:43:10.182Z,13.97
2019-03-09T19:45:40.163Z,12.67
2019-03-09T19:48:10.415Z,12.83
2019-03-09T19:50:40.418Z,11.67
2019-03-09T19:53:10.426Z,14.60
2019-03-09T19:55:40.400Z,18.40
2019-03-09T19:58:10.542Z,9.27
2019-03-09T20:00:40.506Z,9.33
2019-03-09T20:03:11.206Z,11.97
2019-03-09T20:05:41.417Z,18.57
2019-03-09T20:08:11.545Z,12.70
2019-03-09T20:10:41.834Z,9.97
2019-03-09T20:13:11.838Z,12.53
2019-03-09T20:15:41.831Z,13.80
2019-03-09T20:18:11.869Z,12.63
2019-03-09T20:20:41.911Z,12.40
2019-03-09T20:23:11.900Z,16.87
2019-03-09T20:25:41.857Z,12.00
2019-03-09T20:28:12.058Z,15.77
2019-03-09T20:30:42.113Z,12.43
2019-03-09T20:33:12.163Z,14.10
2019-03-09T20:35:42.181Z,106.97
2019-03-09T20:38:12.058Z,46.47
2019-03-09T20:40:42.274Z,34.53
2019-03-09T20:43:12.239Z,29.47
2019-03-09T20:45:42.382Z,25.03
2019-03-09T20:48:12.341Z,26.03
2019-03-09T20:50:42.392Z,27.37
2019-03-09T20:53:12.491Z,26.17
2019-03-09T20:55:42.654Z,25.57
2019-03-09T20:58:13.572Z,26.23
2019-03-09T21:00:43.905Z,24.53
2019-03-09T21:03:14.263Z,21.17
2019-03-09T21:05:44.206Z,19.70
2019-03-09T21:08:14.186Z,22.23
2019-03-09T21:10:44.382Z,20.03
2019-03-09T21:13:14.408Z,17.37
2019-03-09T21:15:44.603Z,21.00
2019-03-09T21:18:14.738Z,18.53
2019-03-09T21:20:45.039Z,18.37
2019-03-09T21:23:15.174Z,20.30
2019-03-09T21:25:47.316Z,18.53
2019-03-09T21:28:16.805Z,19.00
2019-03-09T21:30:46.885Z,21.13
2019-03-09T21:33:16.941Z,23.27
2019-03-09T21:35:47.316Z,23.90
2019-03-09T21:38:17.441Z,25.23
2019-03-09T21:40:47.380Z,24.63
2019-03-09T21:43:17.733Z,21.60
2019-03-09T21:45:47.674Z,23.10
2019-03-09T21:48:17.674Z,28.83
2019-03-09T21:50:48.218Z,27.37
2019-03-09T21:53:18.482Z,25.67
2019-03-09T21:55:49.475Z,24.53
2019-03-09T21:58:19.546Z,25.57
2019-03-09T22:00:49.511Z,23.43
2019-03-09T22:03:20.046Z,23.63
2019-03-09T22:05:50.106Z,23.47
2019-03-09T22:08:21.908Z,21.83
2019-03-09T22:10:51.819Z,21.37
2019-03-09T22:13:21.796Z,24.60
2019-03-09T22:15:51.901Z,24.43
2019-03-09T22:18:22.450Z,20.33
2019-03-09T22:20:53.610Z,22.90
2019-03-09T22:23:23.766Z,20.13
2019-03-09T22:25:53.937Z,18.43
2019-03-09T22:28:23.933Z,18.33
2019-03-09T22:30:54.048Z,18.50
2019-03-09T22:33:24.698Z,25.10
2019-03-09T22:35:55.736Z,19.83
2019-03-09T22:38:25.719Z,18.33
2019-03-09T22:40:55.778Z,16.57
2019-03-09T22:43:28.119Z,17.27
2019-03-09T22:45:58.654Z,19.63
2019-03-09T22:48:28.706Z,18.33
2019-03-09T22:50:59.230Z,16.70
2019-03-09T22:53:29.313Z,17.77
2019-03-09T22:55:59.440Z,15.80
2019-03-09T22:58:29.487Z,13.80
2019-03-09T23:00:59.465Z,18.07
2019-03-09T23:03:29.628Z,16.70
2019-03-09T23:05:59.742Z,13.93
2019-03-09T23:08:30.149Z,17.80
2019-03-09T23:11:00.239Z,15.70
2019-03-09T23:13:30.671Z,12.83
2019-03-09T23:16:00.780Z,13.40
2019-03-09T23:18:31.007Z,16.80
2019-03-09T23:21:01.125Z,14.20
2019-03-09T23:23:31.234Z,13.07
2019-03-09T23:26:01.236Z,15.00
2019-03-09T23:28:44.933Z,14.80
2019-03-09T23:31:15.500Z,15.77
2019-03-09T23:33:46.182Z,12.33
2019-03-09T23:36:16.212Z,12.97
2019-03-09T23:38:46.284Z,12.30
2019-03-09T23:41:16.376Z,13.30
2019-03-09T23:43:46.596Z,12.23
2019-03-09T23:46:17.729Z,11.00
2019-03-09T23:48:50.167Z,10.80
2019-03-09T23:51:19.587Z,11.40
2019-03-09T23:53:49.737Z,12.10
2019-03-09T23:56:19.749Z,11.30
2019-03-09T23:58:49.753Z,11.33
